Time;durP1;ratioP1;P1;durP2;ratioP2;P2;SDS_P1;SDS_P2;PMS_P1;PMS_P2;Temp;Humidity;BMP_temperature;BMP_pressure;BME280_temperature;BME280_humidity;BME280_pressure;Samples;Min_cycle;Max_cycle;Signal;HPM_P1;HPM_P2
2023/06/27 00:00:57;;;;;;;1.40;0.20;;;;;;;20.45;40.26;100643.38;10276027;28;20065;-63
2023/06/27 00:06:04;;;;;;;1.92;0.30;;;;;;;20.45;40.44;100637.91;10278131;28;20063;-62
2023/06/27 00:11:05;;;;;;;1.23;0.30;;;;;;;20.44;40.45;100648.00;10277847;28;20046;-63
2023/06/27 00:16:15;;;;;;;1.50;0.75;;;;;;;20.40;41.05;100644.09;10278687;28;20301;-62
2023/06/27 00:21:17;;;;;;;2.15;0.30;;;;;;;20.27;41.18;100656.03;10278150;28;20058;-63
2023/06/27 00:26:18;;;;;;;3.40;0.35;;;;;;;20.08;41.68;100654.41;10277866;28;20061;-64
2023/06/27 00:31:20;;;;;;;2.63;0.30;;;;;;;20.10;41.72;100655.00;10276566;28;20058;-64
2023/06/27 00:36:21;;;;;;;1.27;0.40;;;;;;;20.05;42.01;100655.72;10277183;28;20054;-62
2023/06/27 00:41:23;;;;;;;1.10;0.28;;;;;;;19.97;42.06;100662.31;10275470;28;20132;-63
2023/06/27 00:46:39;;;;;;;1.95;0.38;;;;;;;19.89;42.52;100670.84;10279305;28;20051;-64
2023/06/27 00:51:41;;;;;;;1.05;0.30;;;;;;;19.88;42.30;100669.16;10274234;28;20078;-63
2023/06/27 00:56:43;;;;;;;2.10;0.38;;;;;;;19.89;42.27;100675.47;10278819;28;20058;-62
2023/06/27 01:01:45;;;;;;;1.48;0.25;;;;;;;19.92;42.26;100669.53;10273387;28;20402;-62
2023/06/27 01:06:54;;;;;;;4.28;0.38;;;;;;;19.81;42.23;100671.97;10275303;28;20050;-63
2023/06/27 01:12:02;;;;;;;0.75;0.30;;;;;;;19.76;42.51;100669.09;10275875;28;20051;-65
2023/06/27 01:17:05;;;;;;;2.97;1.13;;;;;;;19.69;42.75;100667.47;10275405;28;20051;-64
2023/06/27 01:22:10;;;;;;;3.42;0.50;;;;;;;19.68;43.02;100669.38;10277272;28;20538;-60
2023/06/27 01:27:14;;;;;;;0.88;0.30;;;;;;;19.58;43.12;100678.09;10274389;28;20055;-59
2023/06/27 01:32:37;;;;;;;1.60;0.25;;;;;;;19.53;43.32;100667.06;10273606;28;20422;-59
2023/06/27 01:37:48;;;;;;;2.60;0.50;;;;;;;19.51;43.54;100671.03;10279350;28;20061;-59
2023/06/27 01:42:55;;;;;;;3.70;0.40;;;;;;;19.51;43.37;100662.88;10282469;28;20470;-59
2023/06/27 01:47:58;;;;;;;1.88;0.38;;;;;;;19.52;43.51;100662.66;10283092;28;20055;-60
2023/06/27 01:52:59;;;;;;;0.60;0.20;;;;;;;19.46;43.55;100662.72;10282460;28;20089;-59
2023/06/27 01:58:01;;;;;;;1.27;0.30;;;;;;;19.41;43.93;100656.06;10283952;28;20498;-58
2023/06/27 02:03:03;;;;;;;0.73;0.40;;;;;;;19.36;44.05;100661.34;10282415;28;20054;-58
2023/06/27 02:08:05;;;;;;;2.20;0.32;;;;;;;19.27;44.41;100665.44;10282943;28;20097;-58
2023/06/27 02:13:06;;;;;;;4.72;0.35;;;;;;;19.25;44.42;100670.28;10283020;28;20128;-60
2023/06/27 02:18:08;;;;;;;3.70;0.40;;;;;;;19.21;44.66;100674.50;10282112;28;20055;-58
2023/06/27 02:23:09;;;;;;;2.00;0.38;;;;;;;19.15;44.87;100667.25;10283563;28;20054;-59
2023/06/27 02:28:11;;;;;;;1.20;0.30;;;;;;;19.12;44.96;100654.91;10281147;28;20046;-60
2023/06/27 02:33:12;;;;;;;2.15;0.50;;;;;;;19.11;45.17;100650.50;10281091;28;20054;-58
2023/06/27 02:38:13;;;;;;;0.68;0.30;;;;;;;19.00;45.52;100643.91;10280955;28;20047;-58
2023/06/27 02:43:15;;;;;;;2.88;0.40;;;;;;;18.96;45.57;100648.16;10281953;28;20498;-59
2023/06/27 02:48:16;;;;;;;0.98;0.32;;;;;;;18.87;45.87;100644.03;10280773;28;20526;-62
2023/06/27 02:53:18;;;;;;;3.28;0.60;;;;;;;18.72;46.26;100659.84;10279183;28;20051;-60
2023/06/27 02:58:19;;;;;;;2.75;0.35;;;;;;;18.67;46.46;100660.50;10276598;28;20051;-60
2023/06/27 03:03:21;;;;;;;1.35;0.30;;;;;;;18.69;46.51;100663.84;10279936;28;20047;-58
2023/06/27 03:08:22;;;;;;;1.80;0.30;;;;;;;18.75;46.51;100662.97;10281110;28;20105;-59
2023/06/27 03:13:24;;;;;;;2.33;0.32;;;;;;;18.65;46.63;100668.06;10279891;28;20532;-61
2023/06/27 03:18:25;;;;;;;0.85;0.30;;;;;;;18.46;47.18;100677.22;10279082;28;20411;-59
2023/06/27 03:23:27;;;;;;;3.05;0.40;;;;;;;18.42;47.21;100677.69;10277424;28;20050;-58
2023/06/27 03:28:28;;;;;;;0.50;0.30;;;;;;;18.54;46.87;100674.22;10276680;28;20402;-61
2023/06/27 03:33:29;;;;;;;3.47;0.40;;;;;;;18.60;46.91;100666.03;10274842;28;20138;-59
2023/06/27 03:38:31;;;;;;;4.43;0.30;;;;;;;18.69;46.85;100673.91;10278986;28;20046;-60
2023/06/27 03:43:32;;;;;;;2.17;0.30;;;;;;;18.74;46.81;100666.75;10279125;28;20133;-60
2023/06/27 03:48:34;;;;;;;4.63;0.40;;;;;;;18.78;46.74;100678.03;10278974;28;20070;-57
2023/06/27 03:53:35;;;;;;;1.80;0.30;;;;;;;18.84;46.64;100693.53;10278709;28;20054;-59
2023/06/27 03:58:37;;;;;;;1.27;0.40;;;;;;;18.93;46.75;100688.63;10280229;28;20050;-58
2023/06/27 04:03:38;;;;;;;2.45;0.30;;;;;;;19.08;46.48;100696.47;10279267;28;20565;-59
2023/06/27 04:08:40;;;;;;;3.03;0.40;;;;;;;19.19;47.11;100696.56;10278985;28;20565;-58
2023/06/27 04:13:41;;;;;;;0.98;0.40;;;;;;;19.25;46.99;100702.97;10277252;28;20055;-58
2023/06/27 04:18:43;;;;;;;0.85;0.30;;;;;;;19.30;47.34;100685.97;10280357;28;20405;-59
2023/06/27 04:23:44;;;;;;;2.92;0.32;;;;;;;19.31;47.78;100680.31;10278659;28;20052;-60
2023/06/27 04:28:49;;;;;;;1.75;0.45;;;;;;;19.38;47.72;100693.84;10277022;28;20068;-58
2023/06/27 04:33:55;;;;;;;1.30;0.40;;;;;;;19.44;47.78;100687.50;10276979;28;20058;-59
2023/06/27 04:38:56;;;;;;;1.43;0.77;;;;;;;19.48;47.78;100691.44;10277172;28;20109;-60
2023/06/27 04:43:58;;;;;;;1.40;0.52;;;;;;;19.55;47.70;100702.25;10260706;28;20561;-58
2023/06/27 04:49:00;;;;;;;1.05;0.40;;;;;;;19.67;47.89;100708.66;10276119;28;20146;-60
2023/06/27 04:54:02;;;;;;;1.90;0.50;;;;;;;19.82;47.54;100708.28;10278062;28;20058;-59
2023/06/27 04:59:03;;;;;;;1.50;0.65;;;;;;;19.92;47.55;100718.66;10277654;28;20114;-59
2023/06/27 05:04:05;;;;;;;1.92;0.55;;;;;;;20.06;47.29;100711.94;10273353;28;20510;-62
2023/06/27 05:09:06;;;;;;;3.40;0.50;;;;;;;20.15;47.34;100707.03;10271650;28;20503;-61
2023/06/27 05:14:08;;;;;;;1.15;0.50;;;;;;;20.28;47.18;100709.59;10282670;28;20050;-62
2023/06/27 05:19:09;;;;;;;3.42;0.45;;;;;;;20.40;47.20;100710.44;10283460;28;20059;-61
2023/06/27 05:24:10;;;;;;;3.00;0.40;;;;;;;20.54;46.84;100719.28;10268357;28;20057;-61
2023/06/27 05:29:12;;;;;;;4.38;0.38;;;;;;;20.61;47.00;100721.94;10264506;28;20047;-61
2023/06/27 05:34:13;;;;;;;1.60;0.77;;;;;;;20.66;47.07;100718.53;10285118;28;20062;-62
2023/06/27 05:39:15;;;;;;;3.47;0.30;;;;;;;20.76;47.00;100724.25;10283352;28;20047;-61
2023/06/27 05:44:16;;;;;;;5.10;0.45;;;;;;;20.79;47.12;100721.88;10284787;28;20062;-62
2023/06/27 05:49:18;;;;;;;2.03;0.60;;;;;;;21.00;47.12;100722.38;10264642;28;20141;-62
2023/06/27 05:54:19;;;;;;;5.28;0.50;;;;;;;21.15;46.78;100719.19;10284071;28;20101;-61
2023/06/27 05:59:21;;;;;;;3.47;0.60;;;;;;;21.26;46.95;100720.25;10283331;28;20035;-61
2023/06/27 06:04:22;;;;;;;2.20;0.50;;;;;;;21.27;46.48;100716.44;10285160;28;20047;-62
2023/06/27 06:09:24;;;;;;;4.13;0.60;;;;;;;21.31;46.14;100726.69;10282903;28;20054;-61
2023/06/27 06:14:26;;;;;;;2.83;0.95;;;;;;;21.39;45.87;100730.97;10281909;28;20051;-62
2023/06/27 06:19:27;;;;;;;0.70;0.40;;;;;;;21.34;45.72;100722.63;10265606;28;20058;-61
2023/06/27 06:24:29;;;;;;;2.22;1.33;;;;;;;21.53;45.40;100721.47;10277596;28;20062;-62
2023/06/27 06:29:30;;;;;;;3.40;0.50;;;;;;;21.76;44.84;100727.94;10282422;28;20058;-61
2023/06/27 06:34:32;;;;;;;2.45;0.55;;;;;;;21.84;44.25;100729.47;10280097;28;20146;-61
2023/06/27 06:39:33;;;;;;;3.20;0.40;;;;;;;21.97;43.46;100730.03;10277580;28;20411;-61
2023/06/27 06:44:35;;;;;;;2.53;0.40;;;;;;;22.23;43.12;100730.56;10279605;28;20117;-61
2023/06/27 06:49:36;;;;;;;1.45;0.32;;;;;;;22.37;42.79;100734.72;10280039;28;20081;-61
2023/06/27 06:54:38;;;;;;;3.33;0.35;;;;;;;22.63;42.46;100732.44;10277875;28;20054;-62
2023/06/27 06:59:40;;;;;;;4.05;0.47;;;;;;;22.90;41.78;100726.31;10258552;28;20050;-62
2023/06/27 07:04:41;;;;;;;7.15;0.32;;;;;;;23.00;41.23;100729.22;10280071;28;20622;-62
2023/06/27 07:09:43;;;;;;;4.50;0.40;;;;;;;22.63;41.43;100723.38;10280112;28;20078;-62
2023/06/27 07:14:44;;;;;;;4.18;0.40;;;;;;;22.77;41.44;100713.78;10280149;28;20050;-71
2023/06/27 07:19:46;;;;;;;3.58;0.47;;;;;;;23.08;40.89;100709.63;10279956;28;20043;-70
2023/06/27 07:24:47;;;;;;;3.25;0.30;;;;;;;23.03;40.78;100722.44;10277360;28;20062;-70
2023/06/27 07:29:48;;;;;;;3.75;0.57;;;;;;;22.94;40.52;100708.28;10277898;28;20502;-71
2023/06/27 07:34:50;;;;;;;2.75;0.40;;;;;;;22.70;40.91;100705.69;10275381;28;20185;-67
2023/06/27 07:39:52;;;;;;;0.80;0.30;;;;;;;22.99;40.22;100710.28;10280357;28;20055;-63
2023/06/27 07:44:53;;;;;;;2.45;0.40;;;;;;;23.16;39.93;100706.50;10280844;28;20502;-70
2023/06/27 07:49:55;;;;;;;4.63;0.50;;;;;;;23.38;39.52;100708.44;10279898;28;20047;-69
2023/06/27 07:54:56;;;;;;;4.82;0.50;;;;;;;23.34;39.53;100704.53;10277610;28;20418;-65
2023/06/27 07:59:59;;;;;;;1.85;0.60;;;;;;;23.78;38.94;100698.31;10261261;28;20051;-69
2023/06/27 08:05:00;;;;;;;1.63;0.40;;;;;;;24.09;38.35;100700.31;10280155;28;20071;-69
2023/06/27 08:10:04;;;;;;;1.75;0.30;;;;;;;24.27;38.24;100684.56;10278992;28;20715;-68
2023/06/27 08:15:06;;;;;;;1.08;0.40;;;;;;;24.57;37.63;100686.81;10279498;28;20142;-67
2023/06/27 08:20:07;;;;;;;2.33;0.77;;;;;;;24.56;37.76;100681.56;10277754;28;20411;-66
2023/06/27 08:25:09;;;;;;;1.15;0.38;;;;;;;24.18;37.92;100683.38;10279729;28;20065;-67
2023/06/27 08:30:11;;;;;;;3.22;0.60;;;;;;;24.04;38.02;100672.78;10274048;28;20046;-67
2023/06/27 08:35:13;;;;;;;1.90;0.75;;;;;;;24.19;37.77;100676.78;10277524;28;20046;-74
2023/06/27 08:40:24;;;;;;;0.63;0.30;;;;;;;24.60;37.09;100671.72;10274871;28;20077;-72
2023/06/27 08:45:26;;;;;;;2.78;0.40;;;;;;;24.53;36.82;100672.75;10276641;28;20066;-70
2023/06/27 08:50:28;;;;;;;3.88;0.30;;;;;;;24.84;36.43;100655.69;10277795;28;20055;-71
2023/06/27 08:55:35;;;;;;;2.30;0.57;;;;;;;25.07;36.44;100657.22;10279390;28;20149;-68
2023/06/27 09:00:37;;;;;;;1.40;0.30;;;;;;;24.93;35.95;100654.94;10275415;28;20054;-65
2023/06/27 09:05:42;;;;;;;5.90;0.40;;;;;;;24.67;36.05;100653.91;10272649;28;20057;-71
2023/06/27 09:10:44;;;;;;;1.20;0.40;;;;;;;24.73;35.92;100649.28;10276181;28;20446;-73
2023/06/27 09:15:46;;;;;;;1.05;0.30;;;;;;;24.97;35.60;100643.41;10276975;28;20466;-69
2023/06/27 09:20:47;;;;;;;1.42;0.40;;;;;;;25.02;35.40;100638.78;10261154;28;20057;-70
2023/06/27 09:26:15;;;;;;;2.92;0.47;;;;;;;25.04;34.61;100632.97;10275158;28;21071;-62
2023/06/27 09:31:18;;;;;;;2.90;0.50;;;;;;;24.81;35.38;100639.72;10270063;28;20063;-58
2023/06/27 09:37:00;;;;;;;3.58;0.50;;;;;;;25.06;34.51;100628.91;10276773;28;20094;-61
2023/06/27 09:42:04;;;;;;;2.10;0.40;;;;;;;25.00;34.87;100631.84;10247580;28;20623;-60
2023/06/27 09:47:09;;;;;;;1.85;0.30;;;;;;;25.50;33.77;100628.59;10277064;28;20051;-59
2023/06/27 09:52:11;;;;;;;2.88;0.40;;;;;;;25.80;33.67;100634.47;10273739;28;20387;-58
2023/06/27 09:57:16;;;;;;;1.42;0.38;;;;;;;25.45;33.49;100639.56;10276581;28;20057;-58
2023/06/27 10:02:17;;;;;;;0.80;0.30;;;;;;;25.72;33.26;100633.91;10283432;28;20070;-59
2023/06/27 10:07:20;;;;;;;4.95;0.52;;;;;;;26.05;32.48;100633.75;10286095;28;20102;-59
2023/06/27 10:12:22;;;;;;;1.17;0.40;;;;;;;25.99;32.34;100632.06;10282464;28;20047;-59
2023/06/27 10:17:24;;;;;;;2.92;0.50;;;;;;;25.87;32.30;100629.53;10282714;28;20457;-62
2023/06/27 10:22:30;;;;;;;1.55;0.30;;;;;;;26.47;31.22;100619.72;10281988;28;20121;-59
2023/06/27 10:27:38;;;;;;;1.95;0.40;;;;;;;26.40;30.64;100621.94;10284960;28;20054;-59
2023/06/27 10:32:44;;;;;;;2.05;0.40;;;;;;;26.18;32.02;100624.94;10283294;28;20138;-58
2023/06/27 10:38:05;;;;;;;2.97;0.30;;;;;;;26.56;31.62;100621.94;10287096;28;20078;-62
2023/06/27 10:43:07;;;;;;;0.80;0.30;;;;;;;26.58;31.24;100608.69;10282283;28;20062;-63
2023/06/27 10:48:08;;;;;;;2.50;0.40;;;;;;;26.63;30.76;100609.56;10268812;28;20513;-62
2023/06/27 10:53:15;;;;;;;1.30;0.30;;;;;;;26.90;30.05;100602.91;10285728;28;20047;-64
2023/06/27 10:58:26;;;;;;;0.40;0.30;;;;;;;26.76;29.17;100604.56;10268651;28;20070;-62
2023/06/27 11:03:33;;;;;;;0.93;0.40;;;;;;;26.97;28.32;100573.06;10280364;28;20047;-63
2023/06/27 11:08:35;;;;;;;;;;;;;;;26.94;28.67;100587.44;10287355;28;20602;-63
2023/06/27 11:13:45;;;;;;;0.80;0.25;;;;;;;26.77;28.11;100578.66;10283350;28;19921;-64
2023/06/27 11:18:52;;;;;;;58.42;1.98;;;;;;;26.86;27.90;100574.22;10285621;28;20049;-62
2023/06/27 11:24:03;;;;;;;3.78;0.30;;;;;;;26.94;27.86;100559.84;10281458;28;20065;-61
2023/06/27 11:29:05;;;;;;;2.22;0.30;;;;;;;26.71;27.85;100569.56;10278404;28;20043;-64
2023/06/27 11:34:06;;;;;;;3.40;0.30;;;;;;;26.62;27.39;100576.72;10279423;28;20046;-63
2023/06/27 11:39:12;;;;;;;0.50;0.20;;;;;;;26.46;27.70;100559.34;10278927;28;20050;-62
2023/06/27 11:44:15;;;;;;;2.13;0.30;;;;;;;26.40;27.43;100552.19;10282391;28;20454;-63
2023/06/27 11:49:24;;;;;;;0.93;0.25;;;;;;;27.09;26.39;100550.69;10281355;28;20520;-64
2023/06/27 11:54:26;;;;;;;;;;;;;;;26.73;27.02;100553.56;10281923;28;20049;-62
2023/06/27 11:59:31;;;;;;;1.85;0.30;;;;;;;27.01;25.88;100546.56;10280758;28;19933;-62
2023/06/27 12:04:33;;;;;;;1.52;0.28;;;;;;;27.37;25.47;100534.59;10282510;28;20051;-62
2023/06/27 12:09:34;;;;;;;1.27;0.22;;;;;;;27.18;25.83;100540.72;10279602;28;20129;-65
2023/06/27 12:14:36;;;;;;;0.88;0.20;;;;;;;26.76;25.09;100535.59;10264861;28;20042;-62
2023/06/27 12:19:37;;;;;;;2.55;0.40;;;;;;;26.71;25.66;100536.47;10280548;28;20380;-62
2023/06/27 12:24:39;;;;;;;1.50;0.20;;;;;;;26.81;25.67;100536.44;10282655;28;20047;-62
2023/06/27 12:29:40;;;;;;;0.77;0.25;;;;;;;26.96;25.73;100524.53;10263635;28;20089;-64
2023/06/27 12:34:41;;;;;;;0.80;0.30;;;;;;;26.87;25.89;100512.41;10280492;28;20054;-60
2023/06/27 12:39:43;;;;;;;0.95;0.20;;;;;;;27.04;25.77;100520.38;10277458;28;20055;-64
2023/06/27 12:44:44;;;;;;;1.77;0.20;;;;;;;26.82;26.16;100515.22;10282239;28;20062;-64
2023/06/27 12:49:46;;;;;;;2.67;0.30;;;;;;;27.52;26.04;100489.50;10264379;28;20081;-61
2023/06/27 12:54:47;;;;;;;7.32;1.38;;;;;;;27.50;25.04;100490.59;10281911;28;20055;-65
2023/06/27 12:59:49;;;;;;;1.05;0.30;;;;;;;27.84;25.40;100486.22;10276957;28;20047;-58
2023/06/27 13:04:50;;;;;;;1.42;0.20;;;;;;;28.49;24.61;100486.75;10282809;28;20047;-65
2023/06/27 13:09:53;;;;;;;2.28;0.30;;;;;;;28.28;24.54;100477.03;10285965;28;20055;-64
2023/06/27 13:14:55;;;;;;;2.15;0.30;;;;;;;28.07;24.86;100477.22;10278367;28;20047;-60
2023/06/27 13:19:56;;;;;;;2.47;0.30;;;;;;;27.79;25.10;100466.94;10285106;28;20049;-61
2023/06/27 13:24:59;;;;;;;2.50;0.30;;;;;;;27.95;24.42;100465.72;10278727;28;20046;-62
2023/06/27 13:30:00;;;;;;;2.33;0.50;;;;;;;27.79;24.35;100470.53;10276567;28;20490;-62
2023/06/27 13:35:02;;;;;;;3.22;0.30;;;;;;;27.53;24.63;100475.41;10286608;28;20054;-60
2023/06/27 13:40:05;;;;;;;2.53;0.25;;;;;;;27.86;24.53;100448.06;10292122;28;20062;-61
2023/06/27 13:45:07;;;;;;;0.85;0.20;;;;;;;28.31;24.42;100450.75;10290330;28;20514;-60
2023/06/27 13:50:09;;;;;;;0.82;0.30;;;;;;;28.02;24.37;100455.16;10292779;28;20042;-60
2023/06/27 13:55:10;;;;;;;1.40;0.20;;;;;;;27.67;24.92;100456.25;10286217;28;20054;-60
2023/06/27 14:00:12;;;;;;;1.27;0.25;;;;;;;27.52;25.28;100453.59;10288233;28;20129;-58
2023/06/27 14:05:14;;;;;;;2.72;0.30;;;;;;;27.27;25.79;100460.91;10285169;28;20063;-59
2023/06/27 14:10:16;;;;;;;1.83;0.40;;;;;;;27.00;26.18;100450.31;10283172;28;20050;-61
2023/06/27 14:15:19;;;;;;;1.92;0.25;;;;;;;26.91;26.91;100455.56;10284722;28;20046;-59
2023/06/27 14:20:20;;;;;;;1.38;0.30;;;;;;;27.29;26.55;100442.13;10284331;28;20058;-60
2023/06/27 14:25:22;;;;;;;1.25;0.30;;;;;;;27.83;26.78;100438.44;10286887;28;20047;-63
2023/06/27 14:30:25;;;;;;;3.03;0.32;;;;;;;27.98;25.90;100436.69;10283914;28;20070;-57
2023/06/27 14:35:27;;;;;;;1.73;0.38;;;;;;;29.03;24.95;100429.44;10288958;28;20548;-62
2023/06/27 14:40:28;;;;;;;5.25;0.38;;;;;;;28.43;25.34;100421.56;10280142;28;20042;-58
2023/06/27 14:45:30;;;;;;;2.58;0.30;;;;;;;28.34;25.16;100415.03;10292967;28;20096;-59
2023/06/27 14:50:31;;;;;;;1.35;0.30;;;;;;;27.79;25.92;100422.75;10293461;28;20050;-59
2023/06/27 14:55:33;;;;;;;2.15;0.30;;;;;;;27.68;25.99;100414.50;10288601;28;20070;-60
2023/06/27 15:00:34;;;;;;;4.07;0.88;;;;;;;27.96;25.53;100414.03;10293965;28;20043;-61
2023/06/27 15:05:36;;;;;;;1.20;0.50;;;;;;;28.18;25.20;100419.91;10291824;28;20047;-59
2023/06/27 15:10:44;;;;;;;1.98;0.30;;;;;;;28.07;25.23;100410.06;10273658;28;20042;-59
2023/06/27 15:15:45;;;;;;;1.10;0.30;;;;;;;28.04;25.98;100413.41;10281649;28;20132;-60
2023/06/27 15:20:48;;;;;;;0.90;0.32;;;;;;;27.92;25.72;100399.16;10292323;28;20125;-60
2023/06/27 15:25:50;;;;;;;1.48;0.30;;;;;;;27.95;25.63;100384.78;10292014;28;20149;-61
2023/06/27 15:30:51;;;;;;;0.55;0.30;;;;;;;27.47;25.95;100393.72;10271032;28;20498;-59
2023/06/27 15:35:53;;;;;;;2.17;0.32;;;;;;;27.52;25.81;100393.66;10271178;28;20051;-61
2023/06/27 15:40:54;;;;;;;4.85;0.32;;;;;;;27.65;26.59;100393.00;10290257;28;20075;-59
2023/06/27 15:45:56;;;;;;;1.38;0.30;;;;;;;27.55;25.93;100392.25;10272038;28;20057;-58
2023/06/27 15:50:58;;;;;;;0.95;0.35;;;;;;;27.32;26.00;100388.31;10273543;28;20110;-58
2023/06/27 15:56:00;;;;;;;6.70;0.43;;;;;;;27.06;26.37;100386.50;10289859;28;20279;-63
2023/06/27 16:01:01;;;;;;;1.35;0.50;;;;;;;27.11;26.10;100391.16;10277038;28;20055;-59
2023/06/27 16:06:03;;;;;;;2.72;0.50;;;;;;;27.17;26.39;100378.97;10286586;28;20046;-59
2023/06/27 16:11:04;;;;;;;0.50;0.20;;;;;;;27.09;26.23;100368.53;10253160;28;20046;-58
2023/06/27 16:16:06;;;;;;;1.10;0.35;;;;;;;26.61;26.98;100363.56;10274083;28;20051;-59
2023/06/27 16:21:07;;;;;;;1.05;0.32;;;;;;;26.52;26.93;100363.31;10284283;28;20057;-61
2023/06/27 16:26:09;;;;;;;3.00;0.30;;;;;;;26.56;27.53;100357.22;10249174;28;20046;-58
2023/06/27 16:31:10;;;;;;;11.13;0.70;;;;;;;26.66;27.51;100349.78;10279037;28;20059;-60
2023/06/27 16:36:12;;;;;;;2.78;0.30;;;;;;;26.72;27.21;100350.56;10282041;28;20113;-62
2023/06/27 16:41:13;;;;;;;2.28;0.65;;;;;;;26.73;27.96;100365.19;10278710;28;20055;-59
2023/06/27 16:46:15;;;;;;;0.80;0.40;;;;;;;26.60;27.69;100356.44;10285011;28;20043;-61
2023/06/27 16:51:16;;;;;;;2.70;0.43;;;;;;;26.49;27.56;100347.31;10277748;28;20047;-61
2023/06/27 16:56:18;;;;;;;2.47;0.98;;;;;;;26.38;27.41;100344.91;10280534;28;20125;-60
2023/06/27 17:01:19;;;;;;;1.95;0.30;;;;;;;26.11;27.98;100360.69;10284126;28;20062;-61
2023/06/27 17:06:21;;;;;;;2.83;0.30;;;;;;;26.02;28.28;100351.34;10276683;28;20106;-60
2023/06/27 17:11:25;;;;;;;4.32;0.38;;;;;;;25.89;27.91;100351.91;10285561;28;20481;-60
2023/06/27 17:16:26;;;;;;;2.58;0.40;;;;;;;25.68;28.21;100364.88;10263260;28;20042;-60
2023/06/27 17:21:28;;;;;;;2.03;0.50;;;;;;;25.82;28.24;100348.59;10290690;28;20053;-63
2023/06/27 17:26:30;;;;;;;5.50;0.30;;;;;;;25.74;28.24;100352.75;10285570;28;20047;-58
2023/06/27 17:31:31;;;;;;;1.25;0.30;;;;;;;25.94;28.20;100359.34;10292451;28;20502;-58
2023/06/27 17:36:33;;;;;;;2.05;0.40;;;;;;;25.98;27.71;100357.69;10288462;28;20125;-59
2023/06/27 17:41:34;;;;;;;1.90;0.40;;;;;;;26.05;27.81;100349.97;10282584;28;20054;-62
2023/06/27 17:46:36;;;;;;;0.98;0.28;;;;;;;26.04;27.73;100348.31;10282355;28;20502;-58
2023/06/27 17:51:37;;;;;;;2.95;0.93;;;;;;;25.83;27.87;100359.34;10283518;28;20066;-61
2023/06/27 17:56:39;;;;;;;1.98;0.30;;;;;;;25.72;28.93;100364.03;10280039;28;20058;-60
2023/06/27 18:01:41;;;;;;;1.17;0.30;;;;;;;25.60;29.12;100369.00;10278195;28;20059;-59
2023/06/27 18:06:42;;;;;;;4.00;0.30;;;;;;;25.30;30.48;100378.91;10281720;28;20054;-59
2023/06/27 18:11:44;;;;;;;2.58;0.30;;;;;;;25.16;31.01;100393.41;10283063;28;20047;-61
2023/06/27 18:16:46;;;;;;;1.00;0.32;;;;;;;25.00;31.50;100390.66;10273852;28;20073;-57
2023/06/27 18:21:49;;;;;;;1.55;0.30;;;;;;;24.93;31.72;100395.56;10266253;28;20046;-59
2023/06/27 18:26:50;;;;;;;4.00;0.50;;;;;;;24.79;31.88;100405.44;10283448;28;20047;-59
2023/06/27 18:31:51;;;;;;;2.28;0.47;;;;;;;24.70;32.24;100405.97;10283465;28;20413;-62
2023/06/27 18:36:53;;;;;;;3.42;0.38;;;;;;;24.60;32.72;100400.38;10261408;28;20059;-59
2023/06/27 18:41:54;;;;;;;1.55;0.60;;;;;;;24.64;32.63;100400.69;10282690;28;20517;-59
2023/06/27 18:46:56;;;;;;;1.77;0.35;;;;;;;24.66;32.73;100415.81;10244952;28;20055;-61
2023/06/27 18:51:58;;;;;;;1.50;0.40;;;;;;;24.44;33.21;100406.88;10275913;28;20051;-59
2023/06/27 18:57:03;;;;;;;2.53;0.30;;;;;;;24.51;33.14;100415.75;10277413;28;20057;-61
2023/06/27 19:02:05;;;;;;;6.00;0.47;;;;;;;24.33;33.31;100408.78;10275098;28;20106;-60
2023/06/27 19:07:08;;;;;;;4.18;0.40;;;;;;;24.24;33.34;100408.44;10259986;28;20447;-59
2023/06/27 19:12:10;;;;;;;4.57;0.43;;;;;;;24.10;33.62;100416.31;10278056;28;20063;-61
2023/06/27 19:17:12;;;;;;;2.17;0.47;;;;;;;24.07;33.55;100421.50;10269962;28;20047;-61
2023/06/27 19:22:14;;;;;;;8.00;0.90;;;;;;;23.97;34.16;100421.44;10275510;28;20057;-61
2023/06/27 19:27:15;;;;;;;4.93;0.60;;;;;;;23.86;34.01;100435.09;10273097;28;20137;-59
2023/06/27 19:32:17;;;;;;;5.15;0.60;;;;;;;23.77;34.40;100428.38;10277334;28;20758;-60
2023/06/27 19:37:18;;;;;;;2.75;0.68;;;;;;;23.80;34.36;100449.03;10253410;28;20490;-58
2023/06/27 19:42:20;;;;;;;3.72;0.60;;;;;;;23.83;34.59;100459.50;10271941;28;20055;-63
2023/06/27 19:47:24;;;;;;;2.13;0.40;;;;;;;23.80;34.46;100466.34;10270772;28;20059;-60
2023/06/27 19:52:26;;;;;;;2.22;0.45;;;;;;;23.65;34.90;100457.94;10274021;28;20054;-60
2023/06/27 19:57:27;;;;;;;3.55;0.40;;;;;;;23.58;34.94;100454.56;10254754;28;20051;-60
2023/06/27 20:02:29;;;;;;;3.72;0.50;;;;;;;23.52;35.46;100442.72;10274257;28;20053;-62
2023/06/27 20:07:30;;;;;;;2.53;0.55;;;;;;;23.63;35.16;100462.84;10271426;28;20049;-62
2023/06/27 20:12:31;;;;;;;3.40;0.43;;;;;;;23.52;35.33;100462.75;10273079;28;20051;-62
2023/06/27 20:17:33;;;;;;;3.67;0.68;;;;;;;23.56;35.53;100469.38;10272166;28;20043;-64
2023/06/27 20:22:35;;;;;;;7.40;0.75;;;;;;;23.56;35.35;100469.38;10272090;28;20061;-62
2023/06/27 20:27:36;;;;;;;2.53;0.40;;;;;;;23.44;35.64;100467.88;10254007;28;20602;-61
2023/06/27 20:32:38;;;;;;;2.33;0.70;;;;;;;23.39;35.77;100470.56;10266868;28;20054;-61
2023/06/27 20:37:39;;;;;;;2.47;0.40;;;;;;;23.38;36.01;100469.75;10273815;28;20676;-63
2023/06/27 20:42:41;;;;;;;2.80;0.40;;;;;;;23.25;36.29;100476.47;10273038;28;20051;-63
2023/06/27 20:47:42;;;;;;;1.45;0.40;;;;;;;23.26;36.06;100478.13;10276908;28;20055;-63
2023/06/27 20:52:44;;;;;;;0.90;0.32;;;;;;;23.19;36.37;100472.00;10273551;28;20053;-63
2023/06/27 20:57:45;;;;;;;3.55;0.70;;;;;;;23.17;36.32;100480.47;10277188;28;20050;-63
2023/06/27 21:02:48;;;;;;;2.42;0.32;;;;;;;23.08;36.34;100482.00;10272751;28;20295;-63
2023/06/27 21:07:50;;;;;;;2.15;0.47;;;;;;;23.10;36.22;100477.09;10277338;28;20113;-64
2023/06/27 21:12:51;;;;;;;2.05;0.40;;;;;;;23.06;36.46;100475.97;10273305;28;20054;-65
2023/06/27 21:17:53;;;;;;;0.60;0.30;;;;;;;22.96;36.69;100479.38;10278330;28;20510;-64
2023/06/27 21:22:54;;;;;;;1.75;0.40;;;;;;;23.01;36.74;100486.03;10255645;28;20567;-59
2023/06/27 21:27:56;;;;;;;2.65;0.45;;;;;;;22.94;36.72;100480.72;10266427;28;20066;-58
2023/06/27 21:32:57;;;;;;;4.00;0.57;;;;;;;22.91;37.10;100487.53;10273050;28;20055;-64
2023/06/27 21:37:59;;;;;;;1.67;0.60;;;;;;;22.88;37.17;100487.22;10273634;28;20052;-60
2023/06/27 21:43:00;;;;;;;2.95;0.50;;;;;;;22.76;37.41;100488.16;10272117;28;20047;-59
2023/06/27 21:48:02;;;;;;;3.90;0.50;;;;;;;22.67;37.56;100483.38;10273493;28;20517;-58
2023/06/27 21:53:04;;;;;;;2.70;0.50;;;;;;;22.68;37.43;100463.94;10276435;28;20458;-60
2023/06/27 21:58:05;;;;;;;4.18;0.50;;;;;;;22.61;37.69;100482.50;10282029;28;20086;-58
2023/06/27 22:03:10;;;;;;;3.05;0.50;;;;;;;22.65;37.85;100480.91;10283824;28;20077;-59
2023/06/27 22:08:12;;;;;;;2.58;0.40;;;;;;;22.60;37.89;100486.31;10281658;28;20054;-61
2023/06/27 22:13:14;;;;;;;3.60;0.40;;;;;;;22.55;37.99;100492.56;10282288;28;20046;-58
2023/06/27 22:18:15;;;;;;;1.98;0.45;;;;;;;22.54;38.08;100482.66;10281713;28;20050;-58
2023/06/27 22:23:17;;;;;;;4.78;0.68;;;;;;;22.58;37.92;100485.72;10282381;28;20047;-58
2023/06/27 22:28:18;;;;;;;1.33;0.30;;;;;;;22.63;38.19;100485.81;10284303;28;20690;-59
2023/06/27 22:33:19;;;;;;;5.05;0.70;;;;;;;22.66;38.17;100485.28;10281271;28;20043;-58
2023/06/27 22:38:21;;;;;;;1.85;0.40;;;;;;;22.55;38.65;100486.22;10280111;28;20046;-58
2023/06/27 22:43:22;;;;;;;2.67;0.40;;;;;;;22.46;38.70;100474.88;10281915;28;20063;-59
2023/06/27 22:48:24;;;;;;;4.55;0.50;;;;;;;22.27;39.18;100474.31;10281857;28;20050;-59
2023/06/27 22:53:25;;;;;;;4.72;0.40;;;;;;;22.31;38.83;100467.25;10278400;28;20062;-60
2023/06/27 22:58:27;;;;;;;1.13;0.40;;;;;;;22.41;38.67;100463.00;10282641;28;20082;-60
2023/06/27 23:03:28;;;;;;;1.50;0.30;;;;;;;22.43;38.86;100472.63;10280107;28;20055;-59
2023/06/27 23:08:30;;;;;;;0.73;0.43;;;;;;;22.34;39.07;100465.94;10281770;28;20070;-60